createdAt,value
2023-02-17T00:01:41.093Z,172.90
2023-02-17T00:04:07.908Z,174.95
2023-02-17T00:06:34.739Z,162.38
2023-02-17T00:09:01.884Z,176.68
2023-02-17T00:11:28.964Z,183.32
2023-02-17T00:13:56.724Z,174.70
2023-02-17T00:16:25.997Z,182.55
2023-02-17T00:19:00.995Z,180.50
2023-02-17T00:21:30.082Z,167.63
2023-02-17T00:23:58.278Z,173.75
2023-02-17T00:26:25.213Z,173.98
2023-02-17T00:28:52.172Z,176.20
2023-02-17T00:31:23.957Z,166.02
2023-02-17T00:33:54.274Z,187.48
2023-02-17T00:36:21.351Z,176.43
2023-02-17T00:38:49.131Z,171.85
2023-02-17T00:41:30.649Z,164.20
2023-02-17T00:44:04.444Z,163.75
2023-02-17T00:46:53.882Z,179.02
2023-02-17T00:49:23.535Z,153.95
2023-02-17T00:51:52.218Z,176.48
2023-02-17T00:54:19.746Z,166.75
2023-02-17T00:56:47.291Z,175.13
2023-02-17T00:59:14.680Z,174.70
2023-02-17T01:01:45.296Z,166.60
2023-02-17T01:04:13.152Z,169.95
2023-02-17T01:06:43.935Z,172.85
2023-02-17T01:09:18.101Z,157.65
2023-02-17T01:11:45.462Z,184.85
2023-02-17T01:14:14.245Z,175.57
2023-02-17T01:16:45.851Z,170.18
2023-02-17T01:19:17.576Z,188.55
2023-02-17T01:21:45.888Z,173.18
2023-02-17T01:24:13.934Z,190.90
2023-02-17T01:26:41.350Z,174.40
2023-02-17T01:29:10.609Z,174.95
2023-02-17T01:31:40.612Z,188.23
2023-02-17T01:34:08.013Z,170.40
2023-02-17T01:36:35.557Z,193.95
2023-02-17T01:39:05.187Z,171.35
2023-02-17T01:41:35.339Z,173.57
2023-02-17T01:44:18.370Z,173.15
2023-02-17T01:46:47.749Z,169.65
2023-02-17T01:49:30.375Z,196.77
2023-02-17T01:52:24.852Z,161.80
2023-02-17T01:55:07.780Z,177.95
2023-02-17T01:57:38.822Z,169.85
2023-02-17T02:00:07.876Z,169.68
2023-02-17T02:02:34.959Z,162.98
2023-02-17T02:05:02.399Z,170.88
2023-02-17T02:07:34.606Z,171.23
2023-02-17T02:10:01.695Z,165.93
2023-02-17T02:12:35.573Z,165.68
2023-02-17T02:15:16.876Z,171.70
2023-02-17T02:18:11.781Z,161.23
2023-02-17T02:20:41.615Z,152.73
2023-02-17T02:23:45.822Z,164.32
2023-02-17T02:26:30.976Z,154.45
2023-02-17T02:29:35.454Z,162.52
2023-02-17T02:32:20.478Z,167.65
2023-02-17T02:34:58.177Z,145.35
2023-02-17T02:37:30.461Z,154.98
2023-02-17T02:40:00.729Z,146.80
2023-02-17T02:42:28.371Z,155.77
2023-02-17T02:44:55.496Z,149.45
2023-02-17T02:47:51.212Z,147.23
2023-02-17T02:50:23.745Z,148.15
2023-02-17T02:52:53.661Z,162.18
2023-02-17T02:55:35.584Z,153.50
2023-02-17T02:58:21.086Z,148.48
2023-02-17T03:00:48.025Z,146.57
2023-02-17T03:03:29.381Z,152.07
2023-02-17T03:06:06.272Z,138.25
2023-02-17T03:08:33.382Z,142.45
2023-02-17T03:11:01.477Z,133.50
2023-02-17T03:13:28.477Z,136.07
2023-02-17T03:15:55.456Z,132.93
2023-02-17T03:18:22.476Z,149.45
2023-02-17T03:20:58.079Z,141.85
2023-02-17T03:23:25.508Z,135.57
2023-02-17T03:25:52.605Z,137.32
2023-02-17T03:28:19.476Z,142.88
2023-02-17T03:30:46.847Z,136.13
2023-02-17T03:33:13.974Z,134.45
2023-02-17T03:35:41.469Z,141.35
2023-02-17T03:38:08.420Z,128.70
2023-02-17T03:40:35.457Z,133.68
2023-02-17T03:43:02.458Z,131.40
2023-02-17T03:45:29.499Z,129.35
2023-02-17T03:47:56.660Z,135.52
2023-02-17T03:50:23.589Z,126.82
2023-02-17T03:52:51.820Z,132.18
2023-02-17T03:55:18.644Z,132.25
2023-02-17T03:57:45.649Z,131.88
2023-02-17T04:00:13.007Z,127.72
2023-02-17T04:02:42.192Z,132.82
2023-02-17T04:05:11.038Z,127.13
2023-02-17T04:07:38.019Z,127.70
2023-02-17T04:10:09.294Z,124.47
2023-02-17T04:12:37.455Z,131.82
2023-02-17T04:15:04.694Z,130.05
2023-02-17T04:17:31.746Z,117.85
2023-02-17T04:19:58.843Z,128.80
2023-02-17T04:22:25.914Z,120.40
2023-02-17T04:24:53.009Z,134.10
2023-02-17T04:27:20.015Z,129.20
2023-02-17T04:29:47.148Z,115.72
2023-02-17T04:32:14.313Z,116.32
2023-02-17T04:34:41.366Z,123.30
2023-02-17T04:37:20.499Z,119.80
2023-02-17T04:39:47.570Z,124.00
2023-02-17T04:42:14.800Z,127.13
2023-02-17T04:44:42.268Z,119.50
2023-02-17T04:47:10.130Z,123.55
2023-02-17T04:49:37.049Z,126.55
2023-02-17T04:52:07.736Z,121.35
2023-02-17T04:54:35.067Z,126.10
2023-02-17T04:57:02.409Z,120.68
2023-02-17T04:59:32.546Z,118.10
2023-02-17T05:01:59.501Z,129.18
2023-02-17T05:04:27.082Z,123.63
2023-02-17T05:06:54.523Z,116.28
2023-02-17T05:09:21.635Z,120.22
2023-02-17T05:11:48.672Z,116.20
2023-02-17T05:14:15.707Z,113.65
2023-02-17T05:16:42.682Z,119.03
2023-02-17T05:19:09.979Z,126.18
2023-02-17T05:21:37.177Z,110.72
2023-02-17T05:24:04.862Z,112.75
2023-02-17T05:26:33.328Z,113.50
2023-02-17T05:29:00.744Z,120.60
2023-02-17T05:31:27.784Z,111.47
2023-02-17T05:33:58.293Z,122.45
2023-02-17T05:36:25.626Z,118.18
2023-02-17T05:38:52.753Z,102.90
2023-02-17T05:41:20.158Z,119.22
2023-02-17T05:43:47.880Z,112.32
2023-02-17T05:46:15.709Z,115.32
2023-02-17T05:48:43.138Z,104.63
2023-02-17T05:51:10.157Z,106.65
2023-02-17T05:53:37.325Z,102.35
2023-02-17T05:56:14.516Z,103.95
2023-02-17T05:58:41.486Z,96.97
2023-02-17T06:01:12.405Z,103.03
2023-02-17T06:03:39.588Z,102.00
2023-02-17T06:06:07.627Z,103.10
2023-02-17T06:08:36.843Z,103.20
2023-02-17T06:11:04.277Z,112.13
2023-02-17T06:13:31.110Z,106.03
2023-02-17T06:15:58.323Z,111.60
2023-02-17T06:18:25.192Z,111.22
2023-02-17T06:20:54.473Z,108.40
2023-02-17T06:23:21.263Z,99.07
2023-02-17T06:25:48.088Z,109.03
2023-02-17T06:28:14.935Z,124.15
2023-02-17T06:30:44.164Z,105.90
2023-02-17T06:33:11.124Z,99.28
2023-02-17T06:35:38.292Z,99.40
2023-02-17T06:38:05.585Z,102.22
2023-02-17T06:40:32.741Z,100.30
2023-02-17T06:42:59.838Z,95.43
2023-02-17T06:45:26.994Z,94.20
2023-02-17T06:47:53.929Z,92.38
2023-02-17T06:50:21.688Z,94.50
2023-02-17T06:52:51.672Z,88.70
2023-02-17T06:55:21.190Z,97.60
2023-02-17T06:57:48.069Z,86.28
2023-02-17T07:00:16.083Z,81.80
2023-02-17T07:02:43.099Z,94.32
2023-02-17T07:05:10.639Z,93.45
2023-02-17T07:07:41.896Z,90.15
2023-02-17T07:10:09.284Z,86.75
2023-02-17T07:12:36.183Z,90.05
2023-02-17T07:15:06.913Z,91.60
2023-02-17T07:17:34.769Z,90.78
2023-02-17T07:20:01.667Z,90.15
2023-02-17T07:22:28.606Z,87.07
2023-02-17T07:24:55.533Z,92.03
2023-02-17T07:27:22.471Z,95.18
2023-02-17T07:29:49.255Z,87.72
2023-02-17T07:32:16.164Z,82.65
2023-02-17T07:34:44.125Z,85.63
2023-02-17T07:37:10.939Z,90.55
2023-02-17T07:39:37.746Z,87.45
2023-02-17T07:42:06.262Z,83.18
2023-02-17T07:44:33.579Z,83.88
2023-02-17T07:47:00.474Z,79.03
2023-02-17T07:49:27.382Z,76.35
2023-02-17T07:51:54.283Z,75.30
2023-02-17T07:54:21.370Z,73.78
2023-02-17T07:56:48.264Z,73.85
2023-02-17T07:59:15.647Z,58.92
2023-02-17T08:01:42.589Z,58.83
2023-02-17T08:04:09.774Z,65.93
2023-02-17T08:06:39.931Z,61.63
2023-02-17T08:09:26.118Z,55.70
2023-02-17T08:12:11.296Z,52.28
2023-02-17T08:14:38.725Z,88.10
2023-02-17T08:17:06.517Z,69.22
2023-02-17T08:19:47.036Z,81.63
2023-02-17T08:22:15.039Z,83.53
2023-02-17T08:24:41.836Z,57.92
2023-02-17T08:27:08.916Z,61.38
2023-02-17T08:29:35.960Z,50.40
2023-02-17T08:32:03.694Z,46.40
2023-02-17T08:34:33.831Z,53.20
2023-02-17T08:37:06.589Z,49.13
2023-02-17T08:39:34.801Z,54.35
2023-02-17T08:42:02.256Z,51.13
2023-02-17T08:44:29.284Z,54.47
2023-02-17T08:46:56.280Z,58.20
2023-02-17T08:49:26.236Z,52.17
2023-02-17T08:51:53.747Z,53.10
2023-02-17T08:54:20.823Z,60.13
2023-02-17T08:56:47.648Z,58.22
2023-02-17T08:59:14.775Z,57.95
2023-02-17T09:01:43.063Z,52.47
2023-02-17T09:04:13.090Z,60.88
2023-02-17T09:06:43.904Z,57.90
2023-02-17T09:09:13.564Z,58.60
2023-02-17T09:11:40.665Z,54.53
2023-02-17T09:14:08.143Z,51.08
2023-02-17T09:16:35.869Z,51.28
2023-02-17T09:19:03.212Z,50.90
2023-02-17T09:21:30.333Z,47.60
2023-02-17T09:23:57.243Z,57.78
2023-02-17T09:26:24.216Z,50.55
2023-02-17T09:28:51.217Z,49.78
2023-02-17T09:31:23.481Z,49.13
2023-02-17T09:33:51.484Z,40.42
2023-02-17T09:36:22.432Z,49.50
2023-02-17T09:38:50.421Z,46.40
2023-02-17T09:41:35.849Z,50.22
2023-02-17T09:44:02.712Z,46.70
2023-02-17T09:46:38.211Z,47.20
2023-02-17T09:49:17.735Z,51.22
2023-02-17T09:52:12.912Z,51.45
2023-02-17T09:55:12.297Z,45.97
2023-02-17T09:58:07.465Z,40.78
2023-02-17T10:00:40.438Z,50.35
2023-02-17T10:03:25.221Z,44.15
2023-02-17T10:06:24.634Z,48.57
2023-02-17T10:08:53.713Z,49.00
2023-02-17T10:11:27.278Z,47.45
2023-02-17T10:13:56.989Z,50.45
2023-02-17T10:16:31.009Z,45.25
2023-02-17T10:19:06.391Z,49.42
2023-02-17T10:24:06.142Z,43.35
2023-02-17T10:26:50.564Z,51.00
2023-02-17T10:29:36.475Z,43.13
2023-02-17T10:32:20.148Z,45.60
2023-02-17T10:35:16.005Z,44.85
2023-02-17T10:37:42.983Z,43.50
2023-02-17T10:40:18.967Z,44.45
2023-02-17T10:42:47.385Z,40.55
2023-02-17T10:45:31.760Z,37.85
2023-02-17T10:48:11.661Z,36.38
2023-02-17T10:50:41.212Z,38.72
2023-02-17T10:53:20.557Z,41.05
2023-02-17T10:56:04.212Z,38.40
2023-02-17T10:58:40.605Z,40.05
2023-02-17T11:01:08.600Z,38.58
2023-02-17T11:03:38.635Z,40.83
2023-02-17T11:06:26.784Z,38.17
2023-02-17T11:09:01.776Z,35.35
2023-02-17T11:11:35.557Z,33.92
2023-02-17T11:14:18.547Z,32.05
2023-02-17T11:16:49.284Z,36.72
2023-02-17T11:19:34.499Z,30.90
2023-02-17T11:22:04.509Z,40.13
2023-02-17T11:24:34.237Z,36.75
2023-02-17T11:27:08.112Z,32.63
2023-02-17T11:29:35.315Z,31.15
2023-02-17T11:32:09.215Z,36.53
2023-02-17T11:34:38.624Z,30.65
2023-02-17T11:37:14.680Z,28.17
2023-02-17T11:39:50.692Z,26.95
2023-02-17T11:42:24.197Z,31.42
2023-02-17T11:44:52.479Z,27.65
2023-02-17T11:47:35.317Z,26.52
2023-02-17T11:50:02.262Z,30.33
2023-02-17T11:52:38.928Z,25.23
2023-02-17T11:55:24.365Z,25.67
2023-02-17T11:57:56.012Z,29.38
2023-02-17T12:00:31.215Z,24.60
2023-02-17T12:03:36.972Z,24.83
2023-02-17T12:06:12.867Z,22.63
2023-02-17T12:08:58.116Z,22.02
2023-02-17T12:11:51.439Z,23.27
2023-02-17T12:14:40.741Z,22.50
2023-02-17T12:17:30.903Z,21.48
2023-02-17T12:20:19.364Z,23.33
2023-02-17T12:23:21.401Z,18.80
2023-02-17T12:25:57.915Z,21.60
2023-02-17T12:28:25.146Z,25.58
2023-02-17T12:30:57.422Z,22.27
2023-02-17T12:33:45.728Z,24.20
2023-02-17T12:36:15.906Z,19.95
2023-02-17T12:38:47.103Z,23.23
2023-02-17T12:41:18.236Z,20.65
2023-02-17T12:43:50.445Z,19.15
2023-02-17T12:46:24.370Z,20.95
2023-02-17T12:49:02.892Z,17.85
2023-02-17T12:51:38.364Z,20.77
2023-02-17T12:54:32.728Z,18.00
2023-02-17T12:57:14.031Z,21.23
2023-02-17T12:59:44.008Z,20.13
2023-02-17T13:02:17.790Z,19.63
2023-02-17T13:04:49.553Z,21.65
2023-02-17T13:07:33.694Z,19.92
2023-02-17T13:10:01.305Z,22.02
2023-02-17T13:12:29.228Z,19.35
2023-02-17T13:14:59.379Z,19.27
2023-02-17T13:17:26.336Z,17.42
2023-02-17T13:20:11.687Z,20.90
2023-02-17T13:22:41.836Z,19.10
2023-02-17T13:25:14.502Z,22.70
2023-02-17T13:27:41.542Z,23.13
2023-02-17T13:30:37.701Z,19.33
2023-02-17T13:35:53.351Z,19.73
2023-02-17T13:38:31.272Z,19.70
2023-02-17T13:41:02.108Z,16.20
2023-02-17T13:43:33.783Z,16.75
2023-02-17T13:46:06.702Z,17.35
2023-02-17T13:48:36.018Z,19.92
2023-02-17T13:51:05.330Z,19.23
2023-02-17T13:53:37.855Z,17.05
2023-02-17T13:56:12.509Z,19.88
2023-02-17T13:58:42.746Z,17.07
2023-02-17T14:01:17.678Z,17.13
2023-02-17T14:03:54.214Z,21.08
2023-02-17T14:06:32.074Z,19.98
2023-02-17T14:09:00.866Z,16.52
2023-02-17T14:11:32.962Z,13.50
2023-02-17T14:14:01.734Z,14.50
2023-02-17T14:16:33.145Z,14.10
2023-02-17T14:19:19.270Z,14.82
2023-02-17T14:21:59.810Z,19.42
2023-02-17T14:24:33.929Z,17.80
2023-02-17T14:27:09.293Z,21.08
2023-02-17T14:32:30.989Z,14.38
2023-02-17T14:35:34.422Z,16.15
2023-02-17T14:38:18.604Z,12.50
2023-02-17T14:40:45.659Z,17.73
2023-02-17T14:43:12.644Z,11.00
2023-02-17T14:45:42.081Z,11.02
2023-02-17T14:48:11.645Z,11.63
2023-02-17T14:50:42.485Z,13.95
2023-02-17T14:53:13.853Z,12.02
2023-02-17T14:56:10.459Z,11.57
2023-02-17T14:58:37.799Z,18.85
2023-02-17T15:01:05.816Z,13.70
2023-02-17T15:03:40.152Z,9.32
2023-02-17T15:06:15.672Z,8.02
2023-02-17T15:08:45.408Z,11.52
2023-02-17T15:11:22.938Z,12.20
2023-02-17T15:13:50.335Z,16.60
2023-02-17T15:16:17.664Z,12.00
2023-02-17T15:18:46.693Z,17.80
2023-02-17T15:21:34.091Z,11.90
2023-02-17T15:24:09.196Z,16.85
2023-02-17T15:26:37.327Z,23.88
2023-02-17T15:29:04.378Z,12.70
2023-02-17T15:31:36.141Z,13.30
2023-02-17T15:34:05.566Z,14.40
2023-02-17T15:36:33.076Z,11.98
2023-02-17T15:39:00.226Z,27.17
2023-02-17T15:41:30.610Z,18.15
2023-02-17T15:43:58.655Z,14.18
2023-02-17T15:46:33.376Z,17.02
2023-02-17T15:49:00.738Z,22.52
2023-02-17T15:51:27.762Z,26.95
2023-02-17T15:53:59.704Z,21.27
2023-02-17T15:56:31.374Z,15.63
2023-02-17T15:59:04.694Z,22.88
2023-02-17T16:01:34.954Z,31.48
2023-02-17T16:04:02.151Z,16.38
2023-02-17T16:06:29.579Z,20.35
2023-02-17T16:08:58.897Z,24.90
2023-02-17T16:11:27.221Z,12.10
2023-02-17T16:13:54.376Z,21.55
2023-02-17T16:16:32.903Z,24.48
2023-02-17T16:19:04.230Z,17.42
2023-02-17T16:21:34.142Z,21.90
2023-02-17T16:24:01.164Z,21.10
2023-02-17T16:26:34.187Z,13.73
2023-02-17T16:29:06.950Z,29.58
2023-02-17T16:31:35.920Z,26.13
2023-02-17T16:34:03.054Z,24.77
2023-02-17T16:36:35.154Z,26.25
2023-02-17T16:39:12.241Z,29.52
2023-02-17T16:41:39.716Z,13.88
2023-02-17T16:44:12.044Z,16.05
2023-02-17T16:46:49.014Z,17.00
2023-02-17T16:49:30.549Z,25.50
2023-02-17T16:51:58.004Z,24.30
2023-02-17T16:54:25.108Z,31.00
2023-02-17T16:56:52.534Z,25.35
2023-02-17T16:59:22.277Z,22.27
2023-02-17T17:01:51.249Z,35.08
2023-02-17T17:04:18.331Z,27.83
2023-02-17T17:06:51.309Z,24.67
2023-02-17T17:09:30.872Z,29.40
2023-02-17T17:12:01.875Z,26.45
2023-02-17T17:14:31.078Z,31.95
2023-02-17T17:17:03.623Z,21.20
2023-02-17T17:19:31.464Z,20.15
2023-02-17T17:22:04.189Z,33.45
2023-02-17T17:24:32.409Z,20.17
2023-02-17T17:27:00.845Z,22.58
2023-02-17T17:29:31.213Z,32.97
2023-02-17T17:32:01.817Z,17.48
2023-02-17T17:34:32.678Z,41.00
2023-02-17T17:37:01.873Z,31.95
2023-02-17T17:39:32.104Z,26.10
2023-02-17T17:42:01.086Z,24.30
2023-02-17T17:44:30.619Z,34.63
2023-02-17T17:47:02.396Z,33.65
2023-02-17T17:49:39.026Z,16.17
2023-02-17T17:52:08.598Z,22.30
2023-02-17T17:58:28.347Z,27.77
2023-02-17T18:03:51.366Z,20.55
2023-02-17T18:06:47.392Z,28.27
2023-02-17T18:09:31.389Z,25.60
2023-02-17T18:12:09.718Z,29.20
2023-02-17T18:14:39.340Z,21.63
2023-02-17T18:17:08.775Z,40.05
2023-02-17T18:19:36.276Z,24.92
2023-02-17T18:22:05.747Z,26.13
2023-02-17T18:24:32.782Z,21.95
2023-02-17T18:26:59.760Z,22.95
2023-02-17T18:29:27.784Z,28.83
2023-02-17T18:31:55.314Z,19.10
2023-02-17T18:34:22.388Z,34.83
2023-02-17T18:36:49.228Z,24.35
2023-02-17T18:39:16.162Z,35.13
2023-02-17T18:41:43.112Z,27.65
2023-02-17T18:44:11.550Z,29.33
2023-02-17T18:46:39.940Z,33.72
2023-02-17T18:49:07.856Z,21.02
2023-02-17T18:51:34.808Z,23.05
2023-02-17T18:54:02.471Z,26.25
2023-02-17T18:56:33.092Z,24.85
2023-02-17T18:59:00.203Z,29.23
2023-02-17T19:01:30.366Z,37.35
2023-02-17T19:03:57.807Z,20.35
2023-02-17T19:06:31.813Z,34.97
2023-02-17T19:09:01.129Z,24.20
2023-02-17T19:11:28.801Z,26.10
2023-02-17T19:13:55.684Z,24.98
2023-02-17T19:16:29.003Z,20.95
2023-02-17T19:18:56.876Z,32.20
2023-02-17T19:21:28.340Z,27.90
2023-02-17T19:23:55.516Z,19.63
2023-02-17T19:26:22.909Z,29.98
2023-02-17T19:28:49.874Z,33.05
2023-02-17T19:31:18.952Z,24.45
2023-02-17T19:33:46.477Z,17.60
2023-02-17T19:36:21.750Z,17.58
2023-02-17T19:41:19.995Z,32.67
2023-02-17T19:43:47.454Z,21.10
2023-02-17T19:46:18.137Z,24.63
2023-02-17T19:48:47.662Z,17.10
2023-02-17T19:51:15.029Z,22.67
2023-02-17T19:53:43.397Z,15.00
2023-02-17T19:56:24.151Z,25.65
2023-02-17T19:58:51.943Z,21.13
2023-02-17T20:01:28.204Z,18.17
2023-02-17T20:03:55.855Z,19.42
2023-02-17T20:06:29.146Z,22.05
2023-02-17T20:09:02.240Z,16.88
2023-02-17T20:11:30.479Z,41.10
2023-02-17T20:13:58.742Z,22.02
2023-02-17T20:16:26.410Z,30.75
2023-02-17T20:18:55.257Z,30.75
2023-02-17T20:21:25.060Z,29.38
2023-02-17T20:23:55.054Z,25.05
2023-02-17T20:26:28.522Z,31.17
2023-02-17T20:28:56.228Z,21.05
2023-02-17T20:31:23.887Z,21.13
2023-02-17T20:33:51.688Z,22.65
2023-02-17T20:36:19.015Z,21.42
2023-02-17T20:38:45.975Z,40.28
2023-02-17T20:41:16.176Z,15.68
2023-02-17T20:43:43.064Z,24.05
2023-02-17T20:46:25.725Z,34.85
2023-02-17T20:48:53.508Z,33.05
2023-02-17T20:51:20.559Z,20.67
2023-02-17T20:53:48.379Z,23.33
2023-02-17T20:56:18.767Z,15.18
2023-02-17T20:58:46.243Z,24.17
2023-02-17T21:01:13.343Z,17.73
2023-02-17T21:03:40.342Z,21.58
2023-02-17T21:06:23.574Z,28.10
2023-02-17T21:08:54.115Z,20.05
2023-02-17T21:11:21.184Z,19.83
2023-02-17T21:13:48.897Z,23.73
2023-02-17T21:16:18.749Z,27.65
2023-02-17T21:18:47.053Z,26.63
2023-02-17T21:21:14.602Z,16.70
2023-02-17T21:23:41.533Z,20.25
2023-02-17T21:26:10.350Z,24.77
2023-02-17T21:28:37.378Z,32.22
2023-02-17T21:31:04.925Z,15.63
2023-02-17T21:33:32.265Z,21.65
2023-02-17T21:36:03.990Z,18.65
2023-02-17T21:38:30.765Z,15.27
2023-02-17T21:41:05.690Z,19.25
2023-02-17T21:43:51.361Z,23.17
2023-02-17T21:48:45.814Z,17.17
2023-02-17T21:51:12.731Z,24.33
2023-02-17T21:53:40.018Z,20.73
2023-02-17T21:56:08.903Z,25.40
2023-02-17T21:58:36.018Z,19.60
2023-02-17T22:01:04.395Z,29.35
2023-02-17T22:03:31.401Z,17.05
2023-02-17T22:05:58.373Z,15.98
2023-02-17T22:08:25.680Z,25.50
2023-02-17T22:10:52.473Z,17.30
2023-02-17T22:13:19.309Z,20.25
2023-02-17T22:15:47.526Z,26.33
2023-02-17T22:18:14.429Z,26.25
2023-02-17T22:20:44.352Z,15.07
2023-02-17T22:23:11.344Z,18.48
2023-02-17T22:25:41.651Z,26.42
2023-02-17T22:28:10.331Z,25.42
2023-02-17T22:30:38.132Z,20.83
2023-02-17T22:33:04.932Z,17.52
2023-02-17T22:35:32.055Z,25.30
2023-02-17T22:37:59.698Z,21.80
2023-02-17T22:40:27.030Z,24.95
2023-02-17T22:42:53.947Z,17.48
2023-02-17T22:45:20.843Z,18.92
2023-02-17T22:47:47.733Z,15.32
2023-02-17T22:50:14.714Z,23.55
2023-02-17T22:52:41.772Z,17.88
2023-02-17T22:55:08.674Z,22.35
2023-02-17T22:57:35.582Z,17.25
2023-02-17T23:00:02.590Z,28.77
2023-02-17T23:02:29.485Z,19.65
2023-02-17T23:04:56.552Z,22.17
2023-02-17T23:07:24.240Z,15.35
2023-02-17T23:09:54.641Z,12.45
2023-02-17T23:12:21.561Z,19.23
2023-02-17T23:14:48.732Z,20.67
2023-02-17T23:17:15.674Z,21.58
2023-02-17T23:19:42.681Z,23.27
2023-02-17T23:22:15.845Z,20.13
2023-02-17T23:24:44.638Z,18.88
2023-02-17T23:27:12.215Z,15.32
2023-02-17T23:29:40.917Z,18.17
2023-02-17T23:32:08.482Z,23.45
2023-02-17T23:34:35.675Z,11.70
2023-02-17T23:37:02.674Z,23.00
2023-02-17T23:39:29.674Z,25.75
2023-02-17T23:41:56.695Z,22.83
2023-02-17T23:44:23.656Z,32.85
2023-02-17T23:46:50.608Z,20.42
2023-02-17T23:49:18.288Z,23.08
2023-02-17T23:51:47.012Z,22.85
2023-02-17T23:54:14.610Z,16.35
2023-02-17T23:56:41.641Z,24.70
2023-02-17T23:59:08.549Z,29.77
